createdAt,value
2023-05-21T00:00:53.856Z,101565.94
2023-05-21T00:03:22.053Z,101568.38
2023-05-21T00:05:50.299Z,101580.53
2023-05-21T00:08:18.390Z,101566.34
2023-05-21T00:10:47.696Z,101562.50
2023-05-21T00:13:15.468Z,101552.38
2023-05-21T00:15:43.512Z,101549.13
2023-05-21T00:18:12.051Z,101541.63
2023-05-21T00:20:41.687Z,101540.22
2023-05-21T00:23:10.361Z,101520.91
2023-05-21T00:25:38.014Z,101520.16
2023-05-21T00:28:07.280Z,101515.88
2023-05-21T00:30:35.100Z,101514.25
2023-05-21T00:33:04.124Z,101488.06
2023-05-21T00:35:31.890Z,101495.59
2023-05-21T00:38:00.169Z,101486.88
2023-05-21T00:40:27.854Z,101491.56
2023-05-21T00:42:57.204Z,101498.06
2023-05-21T00:45:26.416Z,101464.00
2023-05-21T00:47:55.548Z,101488.56
2023-05-21T00:50:24.261Z,101440.00
2023-05-21T00:52:52.093Z,101456.09
2023-05-21T00:55:19.954Z,101455.91
2023-05-21T00:57:47.763Z,101445.38
2023-05-21T01:00:16.432Z,101445.56
2023-05-21T01:02:45.784Z,101409.91
2023-05-21T01:05:15.434Z,101427.13
2023-05-21T01:07:43.470Z,101411.72
2023-05-21T01:10:12.674Z,101387.81
2023-05-21T01:12:42.930Z,101366.16
2023-05-21T01:15:12.007Z,101380.31
2023-05-21T01:17:41.475Z,101370.59
2023-05-21T01:20:11.801Z,101371.44
2023-05-21T01:22:44.639Z,101337.16
2023-05-21T01:25:14.931Z,101320.72
2023-05-21T01:27:42.731Z,101307.03
2023-05-21T01:30:11.482Z,101265.25
2023-05-21T01:32:46.242Z,101292.25
2023-05-21T01:35:18.455Z,101299.72
2023-05-21T01:37:50.333Z,101325.63
2023-05-21T01:40:24.858Z,101288.78
2023-05-21T01:42:53.122Z,101298.09
2023-05-21T01:45:23.487Z,101310.25
2023-05-21T01:47:55.427Z,101313.72
2023-05-21T01:50:25.755Z,101308.84
2023-05-21T01:52:55.216Z,101286.56
2023-05-21T01:55:25.408Z,101280.84
2023-05-21T01:57:53.894Z,101265.44
2023-05-21T02:00:22.522Z,101250.47
2023-05-21T02:02:50.455Z,101265.25
2023-05-21T02:05:18.359Z,101292.19
2023-05-21T02:07:46.487Z,101247.84
2023-05-21T02:10:14.515Z,101251.28
2023-05-21T02:12:44.172Z,101263.00
2023-05-21T02:15:11.916Z,101243.81
2023-05-21T02:17:40.637Z,101257.16
2023-05-21T02:20:11.531Z,101271.94
2023-05-21T02:22:39.893Z,101250.06
2023-05-21T02:25:09.267Z,101262.81
2023-05-21T02:27:37.722Z,101269.56
2023-05-21T02:30:09.151Z,101278.22
2023-05-21T02:32:37.457Z,101260.41
2023-05-21T02:35:06.041Z,101241.56
2023-05-21T02:37:34.301Z,101235.09
2023-05-21T02:40:02.440Z,101232.84
2023-05-21T02:42:30.119Z,101218.88
2023-05-21T02:44:57.800Z,101258.38
2023-05-21T02:47:27.246Z,101250.06
2023-05-21T02:49:55.836Z,101258.16
2023-05-21T02:52:23.903Z,101247.84
2023-05-21T02:54:53.467Z,101245.59
2023-05-21T02:57:21.340Z,101229.63
2023-05-21T02:59:49.137Z,101221.72
2023-05-21T03:02:17.009Z,101239.31
2023-05-21T03:04:46.983Z,101233.03
2023-05-21T03:07:15.190Z,101199.22
2023-05-21T03:09:42.994Z,101218.06
2023-05-21T03:12:11.565Z,101223.34
2023-05-21T03:14:39.388Z,101211.00
2023-05-21T03:17:08.015Z,101193.19
2023-05-21T03:19:36.486Z,101177.59
2023-05-21T03:22:06.166Z,101140.97
2023-05-21T03:24:34.389Z,101141.38
2023-05-21T03:27:02.140Z,101147.25
2023-05-21T03:29:30.026Z,101136.50
2023-05-21T03:31:58.155Z,101109.22
2023-05-21T03:34:25.967Z,101076.81
2023-05-21T03:36:53.806Z,101025.44
2023-05-21T03:39:22.963Z,101012.31
2023-05-21T03:41:50.695Z,101013.31
2023-05-21T03:44:18.454Z,101031.50
2023-05-21T03:46:46.444Z,101025.03
2023-05-21T03:49:14.801Z,101017.34
2023-05-21T03:51:42.567Z,101033.09
2023-05-21T03:54:10.421Z,101015.53
2023-05-21T03:56:39.524Z,101005.22
2023-05-21T03:59:07.307Z,101035.38
2023-05-21T04:01:36.256Z,101020.78
2023-05-21T04:04:04.161Z,101011.28
2023-05-21T04:06:32.082Z,100978.31
2023-05-21T04:08:59.832Z,100969.22
2023-05-21T04:11:27.658Z,100967.97
2023-05-21T04:13:57.082Z,100938.06
2023-05-21T04:16:25.135Z,100925.09
2023-05-21T04:18:55.427Z,100926.50
2023-05-21T04:21:23.386Z,100952.00
2023-05-21T04:23:53.912Z,100939.25
2023-05-21T04:26:22.805Z,100928.13
2023-05-21T04:28:50.524Z,100911.34
2023-05-21T04:31:19.666Z,100913.75
2023-05-21T04:33:47.508Z,100868.47
2023-05-21T04:36:17.228Z,100872.09
2023-05-21T04:38:45.029Z,100884.41
2023-05-21T04:41:14.804Z,100874.72
2023-05-21T04:43:43.971Z,100863.38
2023-05-21T04:46:11.887Z,100852.66
2023-05-21T04:48:41.144Z,100873.28
2023-05-21T04:51:08.937Z,100874.09
2023-05-21T04:53:36.778Z,100823.53
2023-05-21T04:56:04.688Z,100793.59
2023-05-21T04:58:34.288Z,100788.94
2023-05-21T05:01:03.270Z,100815.22
2023-05-21T05:03:31.332Z,100772.50
2023-05-21T05:06:01.470Z,100743.00
2023-05-21T05:08:29.185Z,100731.88
2023-05-21T05:10:57.015Z,100694.59
2023-05-21T05:13:24.774Z,100669.03
2023-05-21T05:15:54.741Z,100669.88
2023-05-21T05:18:22.659Z,100675.34
2023-05-21T05:20:50.453Z,100671.09
2023-05-21T05:23:19.566Z,100636.81
2023-05-21T05:25:47.461Z,100608.06
2023-05-21T05:28:15.280Z,100578.97
2023-05-21T05:30:43.063Z,100549.78
2023-05-21T05:33:11.529Z,100542.91
2023-05-21T05:35:39.421Z,100537.38
2023-05-21T05:38:09.012Z,100521.81
2023-05-21T05:40:38.195Z,100518.31
2023-05-21T05:43:06.014Z,100526.38
2023-05-21T05:45:33.797Z,100541.72
2023-05-21T05:48:01.874Z,100540.25
2023-05-21T05:50:29.694Z,100547.69
2023-05-21T05:52:57.466Z,100530.28
2023-05-21T05:55:26.793Z,100531.16
2023-05-21T05:57:56.029Z,100535.34
2023-05-21T06:00:23.862Z,100551.34
2023-05-21T06:02:51.722Z,100545.44
2023-05-21T06:05:19.536Z,100532.47
2023-05-21T06:07:47.429Z,100543.81
2023-05-21T06:10:15.196Z,100562.91
2023-05-21T06:12:43.020Z,100575.78
2023-05-21T06:15:14.913Z,100573.16
2023-05-21T06:17:42.774Z,100575.09
2023-05-21T06:20:11.596Z,100586.56
2023-05-21T06:22:39.415Z,100579.63
2023-05-21T06:25:08.258Z,100554.63
2023-05-21T06:27:36.044Z,100576.50
2023-05-21T06:30:04.608Z,100582.59
2023-05-21T06:32:33.663Z,100593.94
2023-05-21T06:35:01.627Z,100615.84
2023-05-21T06:37:29.394Z,100603.88
2023-05-21T06:39:57.187Z,100587.72
2023-05-21T06:42:24.884Z,100588.94
2023-05-21T06:44:52.610Z,100590.53
2023-05-21T06:47:20.958Z,100660.78
2023-05-21T06:49:50.042Z,100661.25
2023-05-21T06:52:17.748Z,100714.69
2023-05-21T06:54:45.452Z,100766.16
2023-05-21T06:57:13.206Z,100764.31
2023-05-21T06:59:40.926Z,100793.25
2023-05-21T07:02:08.868Z,100789.50
2023-05-21T07:04:36.876Z,100784.94
2023-05-21T07:07:06.440Z,100843.72
2023-05-21T07:09:34.160Z,100868.28
2023-05-21T07:12:02.276Z,100848.44
2023-05-21T07:14:29.958Z,100940.09
2023-05-21T07:16:57.771Z,101012.44
2023-05-21T07:19:25.698Z,100933.53
2023-05-21T07:21:53.502Z,100993.88
2023-05-21T07:24:22.684Z,100982.44
2023-05-21T07:26:50.393Z,101008.34
2023-05-21T07:29:18.214Z,101024.19
2023-05-21T07:31:45.942Z,101068.91
2023-05-21T07:34:13.738Z,101099.34
2023-05-21T07:36:41.451Z,101108.38
2023-05-21T07:39:09.267Z,101188.81
2023-05-21T07:41:38.457Z,101173.06
2023-05-21T07:44:06.244Z,101173.19
2023-05-21T07:46:34.023Z,101173.31
2023-05-21T07:49:01.787Z,101156.88
2023-05-21T07:51:30.001Z,101208.09
2023-05-21T07:53:57.832Z,101214.38
2023-05-21T07:56:26.633Z,101234.06
2023-05-21T07:58:55.849Z,101205.59
2023-05-21T08:01:24.001Z,101189.34
2023-05-21T08:03:51.888Z,101212.34
2023-05-21T08:06:19.866Z,101250.13
2023-05-21T08:08:47.632Z,101259.59
2023-05-21T08:11:15.480Z,101306.78
2023-05-21T08:13:43.172Z,101338.56
2023-05-21T08:16:12.482Z,101326.22
2023-05-21T08:18:40.236Z,101300.91
2023-05-21T08:21:07.983Z,101282.72
2023-05-21T08:23:35.732Z,101346.28
2023-05-21T08:26:03.498Z,101351.28
2023-05-21T08:28:31.557Z,101366.53
2023-05-21T08:30:59.325Z,101415.50
2023-05-21T08:33:28.775Z,101406.84
2023-05-21T08:35:56.560Z,101428.16
2023-05-21T08:38:24.376Z,101378.72
2023-05-21T08:40:53.145Z,101437.88
2023-05-21T08:43:21.333Z,101432.56
2023-05-21T08:45:55.058Z,101425.72
2023-05-21T08:48:24.334Z,101445.94
2023-05-21T08:50:54.430Z,101468.06
2023-05-21T08:53:28.050Z,101445.63
2023-05-21T08:55:57.465Z,101445.69
2023-05-21T08:58:25.749Z,101446.25
2023-05-21T09:00:53.625Z,101472.09
2023-05-21T09:03:22.473Z,101451.41
2023-05-21T09:05:51.227Z,101438.47
2023-05-21T09:08:22.726Z,101468.25
2023-05-21T09:10:51.974Z,101452.06
2023-05-21T09:13:21.055Z,101487.66
2023-05-21T09:15:51.468Z,101476.88
2023-05-21T09:18:19.423Z,101447.00
2023-05-21T09:20:47.213Z,101442.81
2023-05-21T09:23:18.807Z,101435.81
2023-05-21T09:25:48.937Z,101468.50
2023-05-21T09:28:18.093Z,101433.44
2023-05-21T09:30:46.778Z,101476.53
2023-05-21T09:33:26.075Z,101446.94
2023-05-21T09:35:54.176Z,101445.09
2023-05-21T09:38:23.798Z,101444.66
2023-05-21T09:40:56.277Z,101449.50
2023-05-21T09:43:24.130Z,101481.13
2023-05-21T09:45:53.446Z,101475.25
2023-05-21T09:48:35.556Z,101490.47
2023-05-21T09:51:11.018Z,101488.97
2023-05-21T09:53:45.457Z,101461.06
2023-05-21T09:56:14.572Z,101471.31
2023-05-21T09:58:42.468Z,101494.59
2023-05-21T10:01:12.228Z,101501.19
2023-05-21T10:03:41.183Z,101480.19
2023-05-21T10:06:10.477Z,101475.00
2023-05-21T10:08:45.498Z,101436.56
2023-05-21T10:11:15.396Z,101449.28
2023-05-21T10:13:51.617Z,101481.38
2023-05-21T10:16:19.478Z,101463.22
2023-05-21T10:18:49.611Z,101487.03
2023-05-21T10:21:18.693Z,101471.66
2023-05-21T10:23:47.539Z,101465.63
2023-05-21T10:26:17.372Z,101445.81
2023-05-21T10:28:45.637Z,101470.38
2023-05-21T10:31:13.695Z,101457.13
2023-05-21T10:33:43.208Z,101482.06
2023-05-21T10:36:11.192Z,101474.09
2023-05-21T10:38:40.065Z,101522.13
2023-05-21T10:41:09.288Z,101537.06
2023-05-21T10:43:49.232Z,101507.03
2023-05-21T10:46:53.193Z,101517.22
2023-05-21T10:49:38.364Z,101505.38
2023-05-21T10:52:19.634Z,101519.38
2023-05-21T10:55:03.098Z,101521.66
2023-05-21T10:57:54.944Z,101521.38
2023-05-21T11:00:26.786Z,101532.56
2023-05-21T11:02:55.294Z,101548.13
2023-05-21T11:05:39.689Z,101527.28
2023-05-21T11:08:22.323Z,101551.91
2023-05-21T11:10:54.747Z,101528.25
2023-05-21T11:13:23.597Z,101524.03
2023-05-21T11:16:09.234Z,101519.28
2023-05-21T11:19:00.077Z,101564.47
2023-05-21T11:21:31.755Z,101533.22
2023-05-21T11:24:10.926Z,101532.00
2023-05-21T11:27:04.380Z,101551.44
2023-05-21T11:29:44.247Z,101499.00
2023-05-21T11:32:15.339Z,101543.94
2023-05-21T11:34:47.544Z,101546.78
2023-05-21T11:37:30.351Z,101544.97
2023-05-21T11:40:20.442Z,101540.91
2023-05-21T11:42:53.067Z,101540.31
2023-05-21T11:45:21.999Z,101549.06
2023-05-21T11:47:52.091Z,101550.38
2023-05-21T11:50:20.821Z,101542.81
2023-05-21T11:52:50.452Z,101552.22
2023-05-21T11:55:22.981Z,101579.84
2023-05-21T11:57:55.096Z,101566.00
2023-05-21T12:00:23.094Z,101564.56
2023-05-21T12:02:55.453Z,101540.38
2023-05-21T12:05:23.805Z,101538.97
2023-05-21T12:07:51.612Z,101534.94
2023-05-21T12:10:22.531Z,101545.63
2023-05-21T12:12:56.369Z,101564.63
2023-05-21T12:15:26.515Z,101546.78
2023-05-21T12:17:56.372Z,101559.78
2023-05-21T12:20:24.366Z,101574.66
2023-05-21T12:22:52.186Z,101546.63
2023-05-21T12:25:21.191Z,101561.44
2023-05-21T12:27:52.707Z,101530.25
2023-05-21T12:30:21.897Z,101551.16
2023-05-21T12:32:49.963Z,101563.63
2023-05-21T12:35:25.152Z,101536.47
2023-05-21T12:37:53.472Z,101552.47
2023-05-21T12:40:22.164Z,101542.84
2023-05-21T12:42:50.927Z,101553.13
2023-05-21T12:45:19.115Z,101548.91
2023-05-21T12:47:50.555Z,101522.03
2023-05-21T12:50:22.128Z,101531.66
2023-05-21T12:52:55.128Z,101516.47
2023-05-21T12:55:26.858Z,101549.22
2023-05-21T12:58:08.202Z,101518.56
2023-05-21T13:00:36.555Z,101523.66
2023-05-21T13:03:06.348Z,101553.91
2023-05-21T13:05:34.883Z,101553.34
2023-05-21T13:08:03.767Z,101551.63
2023-05-21T13:10:31.548Z,101565.13
2023-05-21T13:12:59.354Z,101553.81
2023-05-21T13:15:27.099Z,101543.31
2023-05-21T13:17:56.742Z,101582.47
2023-05-21T13:20:27.403Z,101547.00
2023-05-21T13:22:55.435Z,101583.69
2023-05-21T13:25:28.947Z,101580.22
2023-05-21T13:27:57.401Z,101570.03
2023-05-21T13:30:25.337Z,101577.00
2023-05-21T13:32:53.063Z,101601.66
2023-05-21T13:35:20.731Z,101566.72
2023-05-21T13:37:48.829Z,101578.56
2023-05-21T13:40:17.584Z,101578.56
2023-05-21T13:42:48.801Z,101580.19
2023-05-21T13:45:19.931Z,101577.75
2023-05-21T13:47:48.978Z,101569.25
2023-05-21T13:50:17.549Z,101583.31
2023-05-21T13:52:46.011Z,101578.84
2023-05-21T13:55:15.802Z,101591.84
2023-05-21T13:57:43.832Z,101589.59
2023-05-21T14:00:15.798Z,101592.56
2023-05-21T14:02:44.959Z,101590.81
2023-05-21T14:05:13.600Z,101595.91
2023-05-21T14:07:41.824Z,101599.34
2023-05-21T14:10:10.187Z,101591.44
2023-05-21T14:12:38.512Z,101589.50
2023-05-21T14:15:07.653Z,101571.84
2023-05-21T14:17:36.852Z,101594.00
2023-05-21T14:20:05.106Z,101593.41
2023-05-21T14:22:33.009Z,101589.47
2023-05-21T14:25:00.628Z,101595.75
2023-05-21T14:27:28.395Z,101597.19
2023-05-21T14:29:56.185Z,101591.72
2023-05-21T14:32:24.085Z,101586.38
2023-05-21T14:34:53.300Z,101590.19
2023-05-21T14:37:21.190Z,101594.19
2023-05-21T14:39:49.021Z,101588.84
2023-05-21T14:42:17.006Z,101595.19
2023-05-21T14:44:45.008Z,101579.19
2023-05-21T14:47:12.761Z,101569.94
2023-05-21T14:49:40.538Z,101568.69
2023-05-21T14:52:09.861Z,101570.59
2023-05-21T14:54:38.555Z,101566.53
2023-05-21T14:57:06.635Z,101558.72
2023-05-21T14:59:34.370Z,101556.34
2023-05-21T15:02:02.426Z,101564.16
2023-05-21T15:04:30.330Z,101548.09
2023-05-21T15:06:58.020Z,101538.16
2023-05-21T15:09:27.126Z,101551.19
2023-05-21T15:11:54.878Z,101548.47
2023-05-21T15:14:22.659Z,101534.66
2023-05-21T15:16:50.503Z,101547.03
2023-05-21T15:19:18.401Z,101530.13
2023-05-21T15:21:46.207Z,101540.03
2023-05-21T15:24:13.972Z,101531.19
2023-05-21T15:26:43.058Z,101519.13
2023-05-21T15:29:10.796Z,101527.97
2023-05-21T15:31:39.450Z,101521.53
2023-05-21T15:34:07.170Z,101523.19
2023-05-21T15:36:35.093Z,101513.53
2023-05-21T15:39:03.552Z,101515.97
2023-05-21T15:41:31.287Z,101520.78
2023-05-21T15:44:00.364Z,101475.22
2023-05-21T15:46:28.106Z,101504.13
2023-05-21T15:48:55.892Z,101511.66
2023-05-21T15:51:23.534Z,101500.81
2023-05-21T15:53:51.251Z,101487.56
2023-05-21T15:56:19.021Z,101490.25
2023-05-21T15:58:46.742Z,101490.22
2023-05-21T16:01:15.869Z,101497.47
2023-05-21T16:03:43.670Z,101484.31
2023-05-21T16:06:11.632Z,101467.78
2023-05-21T16:08:39.407Z,101482.25
2023-05-21T16:11:07.321Z,101475.47
2023-05-21T16:13:35.057Z,101465.03
2023-05-21T16:16:02.768Z,101471.28
2023-05-21T16:18:31.965Z,101491.59
2023-05-21T16:20:59.723Z,101477.47
2023-05-21T16:23:27.467Z,101472.06
2023-05-21T16:25:55.305Z,101468.81
2023-05-21T16:28:24.396Z,101471.91
2023-05-21T16:30:52.344Z,101450.63
2023-05-21T16:33:20.491Z,101447.97
2023-05-21T16:35:49.584Z,101458.13
2023-05-21T16:38:17.288Z,101445.84
2023-05-21T16:40:47.155Z,101422.31
2023-05-21T16:43:15.121Z,101426.81
2023-05-21T16:45:44.820Z,101382.81
2023-05-21T16:48:13.456Z,101419.06
2023-05-21T16:50:41.638Z,101417.97
2023-05-21T16:53:11.423Z,101407.78
2023-05-21T16:55:39.849Z,101386.13
2023-05-21T16:58:09.290Z,101398.38
2023-05-21T17:00:37.352Z,101388.31
2023-05-21T17:03:05.353Z,101385.81
2023-05-21T17:05:33.198Z,101386.22
2023-05-21T17:08:00.857Z,101373.00
2023-05-21T17:10:31.003Z,101355.78
2023-05-21T17:13:01.736Z,101367.56
2023-05-21T17:15:31.976Z,101356.75
2023-05-21T17:17:59.757Z,101351.94
2023-05-21T17:20:27.588Z,101336.28
2023-05-21T17:22:55.296Z,101342.50
2023-05-21T17:25:25.031Z,101351.25
2023-05-21T17:27:54.731Z,101339.03
2023-05-21T17:30:22.524Z,101308.91
2023-05-21T17:32:50.323Z,101313.38
2023-05-21T17:35:18.078Z,101303.78
2023-05-21T17:37:47.197Z,101301.13
2023-05-21T17:40:15.168Z,101296.28
2023-05-21T17:42:42.925Z,101292.38
2023-05-21T17:45:12.604Z,101278.91
2023-05-21T17:47:40.301Z,101275.59
2023-05-21T17:50:09.525Z,101255.09
2023-05-21T17:52:37.266Z,101248.75
2023-05-21T17:55:05.427Z,101235.00
2023-05-21T17:57:33.214Z,101229.81
2023-05-21T18:00:00.985Z,101222.22
2023-05-21T18:02:30.183Z,101216.34
2023-05-21T18:04:58.003Z,101195.69
2023-05-21T18:07:25.768Z,101199.16
2023-05-21T18:09:53.591Z,101218.44
2023-05-21T18:12:21.382Z,101184.88
2023-05-21T18:14:49.394Z,101185.94
2023-05-21T18:17:17.103Z,101184.00
2023-05-21T18:19:46.243Z,101180.84
2023-05-21T18:22:14.036Z,101168.09
2023-05-21T18:24:41.783Z,101147.94
2023-05-21T18:27:09.519Z,101179.81
2023-05-21T18:29:37.759Z,101162.44
2023-05-21T18:32:06.373Z,101164.97
2023-05-21T18:34:34.244Z,101152.19
2023-05-21T18:37:03.362Z,101133.75
2023-05-21T18:39:31.142Z,101111.53
2023-05-21T18:42:12.170Z,101095.53
2023-05-21T18:44:41.624Z,101098.50
2023-05-21T18:47:09.386Z,101094.38
2023-05-21T18:49:37.301Z,101066.03
2023-05-21T18:52:07.164Z,101053.94
2023-05-21T18:54:34.904Z,101030.34
2023-05-21T18:57:02.952Z,101032.53
2023-05-21T18:59:31.273Z,100999.41
2023-05-21T19:01:59.178Z,101006.75
2023-05-21T19:04:27.373Z,100978.34
2023-05-21T19:06:55.056Z,100944.19
2023-05-21T19:09:24.187Z,100894.81
2023-05-21T19:11:52.062Z,100884.25
2023-05-21T19:14:20.324Z,100864.91
2023-05-21T19:16:48.141Z,100915.53
2023-05-21T19:19:16.526Z,100924.50
2023-05-21T19:21:44.281Z,100896.34
2023-05-21T19:24:12.079Z,100935.44
2023-05-21T19:26:41.156Z,100894.72
2023-05-21T19:29:09.568Z,100881.53
2023-05-21T19:31:37.399Z,100832.53
2023-05-21T19:34:10.371Z,100879.09
2023-05-21T19:36:51.669Z,100845.75
2023-05-21T19:39:21.000Z,100835.16
2023-05-21T19:41:50.464Z,100784.59
2023-05-21T19:44:18.364Z,100777.13
2023-05-21T19:46:46.088Z,100724.00
2023-05-21T19:49:15.813Z,100709.84
2023-05-21T19:51:43.741Z,100682.66
2023-05-21T19:54:11.426Z,100650.03
2023-05-21T19:56:39.278Z,100604.09
2023-05-21T19:59:08.464Z,100554.78
2023-05-21T20:01:39.271Z,100568.47
2023-05-21T20:04:07.573Z,100577.13
2023-05-21T20:06:35.506Z,100548.28
2023-05-21T20:09:03.292Z,100549.78
2023-05-21T20:11:31.148Z,100559.31
2023-05-21T20:13:58.938Z,100584.34
2023-05-21T20:16:28.168Z,100594.38
2023-05-21T20:18:56.926Z,100519.25
2023-05-21T20:21:25.673Z,100514.34
2023-05-21T20:23:54.541Z,100455.34
2023-05-21T20:26:23.165Z,100430.03
2023-05-21T20:28:50.947Z,100348.41
2023-05-21T20:31:18.790Z,100321.19
2023-05-21T20:33:50.500Z,100322.81
2023-05-21T20:36:18.477Z,100241.19
2023-05-21T20:38:47.206Z,100256.41
2023-05-21T20:41:15.072Z,100293.03
2023-05-21T20:43:45.263Z,100253.88
2023-05-21T20:46:13.544Z,100278.44
2023-05-21T20:48:41.787Z,100267.00
2023-05-21T20:51:11.126Z,100208.81
2023-05-21T20:53:38.828Z,100182.19
2023-05-21T20:56:07.963Z,100153.88
2023-05-21T20:58:35.959Z,100046.56
2023-05-21T21:01:03.921Z,99913.50
2023-05-21T21:03:34.325Z,99864.41
2023-05-21T21:06:03.165Z,99795.41
2023-05-21T21:08:34.618Z,99796.78
2023-05-21T21:11:02.331Z,99784.97
2023-05-21T21:13:30.070Z,99743.22
2023-05-21T21:15:57.784Z,99709.41
2023-05-21T21:18:25.568Z,99741.53
2023-05-21T21:20:53.975Z,99709.31
2023-05-21T21:23:22.118Z,99745.97
2023-05-21T21:25:51.435Z,99753.69
2023-05-21T21:28:19.804Z,99747.03
2023-05-21T21:30:47.515Z,99734.56
2023-05-21T21:33:16.358Z,99690.50
2023-05-21T21:35:44.198Z,99677.25
2023-05-21T21:38:11.945Z,99716.59
2023-05-21T21:40:39.828Z,99755.34
2023-05-21T21:43:09.136Z,99795.16
2023-05-21T21:45:36.891Z,99788.69
2023-05-21T21:48:04.867Z,99801.41
2023-05-21T21:50:32.557Z,99775.72
2023-05-21T21:53:01.222Z,99783.06
2023-05-21T21:55:29.607Z,99794.41
2023-05-21T21:57:57.336Z,99779.88
2023-05-21T22:00:26.934Z,99737.47
2023-05-21T22:02:54.814Z,99737.03
2023-05-21T22:05:22.709Z,99726.94
2023-05-21T22:07:50.548Z,99688.00
2023-05-21T22:10:18.679Z,99617.56
2023-05-21T22:12:47.060Z,99667.31
2023-05-21T22:15:20.149Z,99691.84
2023-05-21T22:17:49.936Z,99656.81
2023-05-21T22:20:18.487Z,99581.41
2023-05-21T22:22:47.038Z,99577.88
2023-05-21T22:25:14.832Z,99586.34
2023-05-21T22:27:43.152Z,99547.56
2023-05-21T22:30:11.699Z,99495.38
2023-05-21T22:32:39.371Z,99477.69
2023-05-21T22:35:12.615Z,99499.00
2023-05-21T22:37:40.422Z,99499.25
2023-05-21T22:40:09.730Z,99486.00
2023-05-21T22:42:38.110Z,99508.13
2023-05-21T22:45:06.754Z,99514.94
2023-05-21T22:47:37.201Z,99525.19
2023-05-21T22:50:05.396Z,99493.16
2023-05-21T22:52:35.385Z,99525.41
2023-05-21T22:55:03.371Z,99511.69
2023-05-21T22:57:31.132Z,99445.28
2023-05-21T22:59:58.988Z,99439.22
2023-05-21T23:02:26.969Z,99441.75
2023-05-21T23:04:54.773Z,99432.06
2023-05-21T23:07:22.451Z,99418.88
2023-05-21T23:09:52.180Z,99387.00
2023-05-21T23:12:19.941Z,99385.97
2023-05-21T23:14:48.118Z,99376.19
2023-05-21T23:17:15.959Z,99379.09
2023-05-21T23:19:43.721Z,99392.53
2023-05-21T23:22:11.553Z,99401.19
2023-05-21T23:24:39.419Z,99398.88
2023-05-21T23:27:08.483Z,99409.66
2023-05-21T23:29:36.365Z,99422.25
2023-05-21T23:32:05.196Z,99433.06
2023-05-21T23:34:33.268Z,99443.31
2023-05-21T23:37:01.009Z,99442.00
2023-05-21T23:39:29.130Z,99449.09
2023-05-21T23:41:56.890Z,99448.56
2023-05-21T23:44:25.998Z,99443.81
2023-05-21T23:46:53.723Z,99417.28
2023-05-21T23:49:21.448Z,99348.06
2023-05-21T23:51:50.649Z,99235.34
2023-05-21T23:54:18.569Z,99200.84
2023-05-21T23:56:46.894Z,99198.59
2023-05-21T23:59:16.304Z,99188.31
